sensor_id;sensor_type;location;lat;lon;timestamp;P1;durP1;ratioP1;P2;durP2;ratioP2
43919;SDS011;29578;51.946;5.874;2022-07-05T00:00:05;0.47;;;0.43;;
43919;SDS011;29578;51.946;5.874;2022-07-05T00:02:31;0.30;;;0.30;;
43919;SDS011;29578;51.946;5.874;2022-07-05T00:04:57;0.30;;;0.30;;
43919;SDS011;29578;51.946;5.874;2022-07-05T00:07:23;0.30;;;0.30;;
43919;SDS011;29578;51.946;5.874;2022-07-05T00:09:51;0.25;;;0.25;;
43919;SDS011;29578;51.946;5.874;2022-07-05T00:12:20;1.17;;;0.40;;
43919;SDS011;29578;51.946;5.874;2022-07-05T00:14:47;0.40;;;0.40;;
43919;SDS011;29578;51.946;5.874;2022-07-05T00:17:14;0.32;;;0.32;;
43919;SDS011;29578;51.946;5.874;2022-07-05T00:19:40;0.63;;;0.35;;
43919;SDS011;29578;51.946;5.874;2022-07-05T00:22:06;0.40;;;0.40;;
43919;SDS011;29578;51.946;5.874;2022-07-05T00:24:31;0.90;;;0.40;;
43919;SDS011;29578;51.946;5.874;2022-07-05T00:26:57;0.22;;;0.22;;
43919;SDS011;29578;51.946;5.874;2022-07-05T00:29:23;0.55;;;0.30;;
43919;SDS011;29578;51.946;5.874;2022-07-05T00:31:49;0.43;;;0.38;;
43919;SDS011;29578;51.946;5.874;2022-07-05T00:34:14;0.40;;;0.40;;
43919;SDS011;29578;51.946;5.874;2022-07-05T00:36:40;0.35;;;0.32;;
43919;SDS011;29578;51.946;5.874;2022-07-05T00:39:06;0.30;;;0.30;;
43919;SDS011;29578;51.946;5.874;2022-07-05T00:41:32;0.30;;;0.30;;
43919;SDS011;29578;51.946;5.874;2022-07-05T00:44:00;0.30;;;0.30;;
43919;SDS011;29578;51.946;5.874;2022-07-05T00:46:29;0.20;;;0.20;;
43919;SDS011;29578;51.946;5.874;2022-07-05T00:48:55;0.20;;;0.20;;
43919;SDS011;29578;51.946;5.874;2022-07-05T00:51:22;0.30;;;0.30;;
43919;SDS011;29578;51.946;5.874;2022-07-05T00:53:48;0.30;;;0.30;;
43919;SDS011;29578;51.946;5.874;2022-07-05T00:56:14;1.75;;;0.30;;
43919;SDS011;29578;51.946;5.874;2022-07-05T00:58:40;0.25;;;0.25;;
43919;SDS011;29578;51.946;5.874;2022-07-05T01:01:07;0.20;;;0.20;;
43919;SDS011;29578;51.946;5.874;2022-07-05T01:03:34;0.30;;;0.30;;
43919;SDS011;29578;51.946;5.874;2022-07-05T01:06:01;0.38;;;0.30;;
43919;SDS011;29578;51.946;5.874;2022-07-05T01:08:30;0.30;;;0.30;;
43919;SDS011;29578;51.946;5.874;2022-07-05T01:10:58;0.30;;;0.30;;
43919;SDS011;29578;51.946;5.874;2022-07-05T01:13:23;0.30;;;0.30;;
43919;SDS011;29578;51.946;5.874;2022-07-05T01:15:51;0.30;;;0.30;;
43919;SDS011;29578;51.946;5.874;2022-07-05T01:18:18;0.30;;;0.30;;
43919;SDS011;29578;51.946;5.874;2022-07-05T01:20:47;0.20;;;0.20;;
43919;SDS011;29578;51.946;5.874;2022-07-05T01:23:14;0.30;;;0.30;;
43919;SDS011;29578;51.946;5.874;2022-07-05T01:25:42;0.35;;;0.35;;
43919;SDS011;29578;51.946;5.874;2022-07-05T01:28:07;1.45;;;0.43;;
43919;SDS011;29578;51.946;5.874;2022-07-05T01:30:34;0.30;;;0.30;;
43919;SDS011;29578;51.946;5.874;2022-07-05T01:33:01;1.08;;;0.50;;
43919;SDS011;29578;51.946;5.874;2022-07-05T01:35:27;0.60;;;0.55;;
43919;SDS011;29578;51.946;5.874;2022-07-05T01:37:53;0.60;;;0.52;;
43919;SDS011;29578;51.946;5.874;2022-07-05T01:40:19;0.47;;;0.43;;
43919;SDS011;29578;51.946;5.874;2022-07-05T01:42:45;0.43;;;0.43;;
43919;SDS011;29578;51.946;5.874;2022-07-05T01:45:12;0.35;;;0.35;;
43919;SDS011;29578;51.946;5.874;2022-07-05T01:47:58;0.50;;;0.50;;
43919;SDS011;29578;51.946;5.874;2022-07-05T01:50:25;0.35;;;0.35;;
43919;SDS011;29578;51.946;5.874;2022-07-05T01:52:54;0.40;;;0.40;;
43919;SDS011;29578;51.946;5.874;2022-07-05T01:55:23;0.50;;;0.50;;
43919;SDS011;29578;51.946;5.874;2022-07-05T01:57:49;0.40;;;0.40;;
43919;SDS011;29578;51.946;5.874;2022-07-05T02:00:15;0.80;;;0.60;;
43919;SDS011;29578;51.946;5.874;2022-07-05T02:02:41;0.77;;;0.40;;
43919;SDS011;29578;51.946;5.874;2022-07-05T02:05:07;0.43;;;0.43;;
43919;SDS011;29578;51.946;5.874;2022-07-05T02:07:33;0.40;;;0.40;;
43919;SDS011;29578;51.946;5.874;2022-07-05T02:09:59;0.95;;;0.60;;
43919;SDS011;29578;51.946;5.874;2022-07-05T02:12:24;0.30;;;0.30;;
43919;SDS011;29578;51.946;5.874;2022-07-05T02:14:50;0.35;;;0.35;;
43919;SDS011;29578;51.946;5.874;2022-07-05T02:17:16;0.43;;;0.40;;
43919;SDS011;29578;51.946;5.874;2022-07-05T02:19:41;0.40;;;0.40;;
43919;SDS011;29578;51.946;5.874;2022-07-05T02:22:07;0.60;;;0.55;;
43919;SDS011;29578;51.946;5.874;2022-07-05T02:24:33;0.50;;;0.50;;
43919;SDS011;29578;51.946;5.874;2022-07-05T02:26:59;0.75;;;0.60;;
43919;SDS011;29578;51.946;5.874;2022-07-05T02:29:24;0.52;;;0.50;;
43919;SDS011;29578;51.946;5.874;2022-07-05T02:31:50;0.85;;;0.40;;
43919;SDS011;29578;51.946;5.874;2022-07-05T02:34:16;0.90;;;0.60;;
43919;SDS011;29578;51.946;5.874;2022-07-05T02:36:42;0.40;;;0.40;;
43919;SDS011;29578;51.946;5.874;2022-07-05T02:39:08;0.70;;;0.65;;
43919;SDS011;29578;51.946;5.874;2022-07-05T02:41:34;0.60;;;0.50;;
43919;SDS011;29578;51.946;5.874;2022-07-05T02:43:59;0.85;;;0.65;;
43919;SDS011;29578;51.946;5.874;2022-07-05T02:46:25;0.40;;;0.40;;
43919;SDS011;29578;51.946;5.874;2022-07-05T02:48:51;0.40;;;0.40;;
43919;SDS011;29578;51.946;5.874;2022-07-05T02:51:18;0.43;;;0.43;;
43919;SDS011;29578;51.946;5.874;2022-07-05T02:53:43;0.80;;;0.47;;
43919;SDS011;29578;51.946;5.874;2022-07-05T02:56:09;0.80;;;0.50;;
43919;SDS011;29578;51.946;5.874;2022-07-05T02:58:36;0.47;;;0.47;;
43919;SDS011;29578;51.946;5.874;2022-07-05T03:01:03;0.50;;;0.50;;
43919;SDS011;29578;51.946;5.874;2022-07-05T03:03:29;0.50;;;0.50;;
43919;SDS011;29578;51.946;5.874;2022-07-05T03:05:54;0.47;;;0.47;;
43919;SDS011;29578;51.946;5.874;2022-07-05T03:08:20;0.40;;;0.40;;
43919;SDS011;29578;51.946;5.874;2022-07-05T03:10:45;0.38;;;0.32;;
43919;SDS011;29578;51.946;5.874;2022-07-05T03:13:11;0.35;;;0.35;;
43919;SDS011;29578;51.946;5.874;2022-07-05T03:15:37;0.30;;;0.30;;
43919;SDS011;29578;51.946;5.874;2022-07-05T03:18:03;0.40;;;0.40;;
43919;SDS011;29578;51.946;5.874;2022-07-05T03:20:29;0.43;;;0.43;;
43919;SDS011;29578;51.946;5.874;2022-07-05T03:22:55;0.68;;;0.40;;
43919;SDS011;29578;51.946;5.874;2022-07-05T03:25:20;0.70;;;0.50;;
43919;SDS011;29578;51.946;5.874;2022-07-05T03:27:46;0.63;;;0.50;;
43919;SDS011;29578;51.946;5.874;2022-07-05T03:30:12;0.50;;;0.45;;
43919;SDS011;29578;51.946;5.874;2022-07-05T03:32:38;0.47;;;0.47;;
43919;SDS011;29578;51.946;5.874;2022-07-05T03:35:03;1.65;;;0.40;;
43919;SDS011;29578;51.946;5.874;2022-07-05T03:37:30;1.65;;;0.20;;
43919;SDS011;29578;51.946;5.874;2022-07-05T03:39:55;0.57;;;0.30;;
43919;SDS011;29578;51.946;5.874;2022-07-05T03:42:21;0.80;;;0.65;;
43919;SDS011;29578;51.946;5.874;2022-07-05T03:44:47;0.50;;;0.50;;
43919;SDS011;29578;51.946;5.874;2022-07-05T03:47:13;0.40;;;0.38;;
43919;SDS011;29578;51.946;5.874;2022-07-05T03:49:39;0.35;;;0.35;;
43919;SDS011;29578;51.946;5.874;2022-07-05T03:52:05;0.40;;;0.40;;
43919;SDS011;29578;51.946;5.874;2022-07-05T03:54:31;0.50;;;0.50;;
43919;SDS011;29578;51.946;5.874;2022-07-05T03:56:56;0.30;;;0.30;;
43919;SDS011;29578;51.946;5.874;2022-07-05T03:59:22;0.43;;;0.40;;
43919;SDS011;29578;51.946;5.874;2022-07-05T04:01:48;0.52;;;0.50;;
43919;SDS011;29578;51.946;5.874;2022-07-05T04:04:13;0.80;;;0.50;;
43919;SDS011;29578;51.946;5.874;2022-07-05T04:06:39;0.50;;;0.50;;
43919;SDS011;29578;51.946;5.874;2022-07-05T04:09:05;0.65;;;0.65;;
43919;SDS011;29578;51.946;5.874;2022-07-05T04:11:30;0.63;;;0.60;;
43919;SDS011;29578;51.946;5.874;2022-07-05T04:13:56;0.57;;;0.55;;
43919;SDS011;29578;51.946;5.874;2022-07-05T04:16:22;0.50;;;0.50;;
43919;SDS011;29578;51.946;5.874;2022-07-05T04:18:48;0.43;;;0.40;;
43919;SDS011;29578;51.946;5.874;2022-07-05T04:21:14;0.35;;;0.35;;
43919;SDS011;29578;51.946;5.874;2022-07-05T04:23:39;0.60;;;0.60;;
43919;SDS011;29578;51.946;5.874;2022-07-05T04:26:05;0.40;;;0.40;;
43919;SDS011;29578;51.946;5.874;2022-07-05T04:28:31;0.50;;;0.50;;
43919;SDS011;29578;51.946;5.874;2022-07-05T04:30:57;0.55;;;0.50;;
43919;SDS011;29578;51.946;5.874;2022-07-05T04:33:25;0.55;;;0.43;;
43919;SDS011;29578;51.946;5.874;2022-07-05T04:35:51;0.40;;;0.40;;
43919;SDS011;29578;51.946;5.874;2022-07-05T04:38:16;0.43;;;0.43;;
43919;SDS011;29578;51.946;5.874;2022-07-05T04:40:42;0.57;;;0.57;;
43919;SDS011;29578;51.946;5.874;2022-07-05T04:43:08;0.70;;;0.60;;
43919;SDS011;29578;51.946;5.874;2022-07-05T04:45:34;0.63;;;0.63;;
43919;SDS011;29578;51.946;5.874;2022-07-05T04:47:59;0.60;;;0.60;;
43919;SDS011;29578;51.946;5.874;2022-07-05T04:50:25;1.23;;;0.73;;
43919;SDS011;29578;51.946;5.874;2022-07-05T04:52:51;0.68;;;0.68;;
43919;SDS011;29578;51.946;5.874;2022-07-05T04:55:17;0.80;;;0.77;;
43919;SDS011;29578;51.946;5.874;2022-07-05T04:57:45;1.48;;;0.82;;
43919;SDS011;29578;51.946;5.874;2022-07-05T05:00:11;0.80;;;0.60;;
43919;SDS011;29578;51.946;5.874;2022-07-05T05:02:39;0.80;;;0.70;;
43919;SDS011;29578;51.946;5.874;2022-07-05T05:05:05;0.70;;;0.70;;
43919;SDS011;29578;51.946;5.874;2022-07-05T05:07:31;1.73;;;1.00;;
43919;SDS011;29578;51.946;5.874;2022-07-05T05:09:58;0.77;;;0.73;;
43919;SDS011;29578;51.946;5.874;2022-07-05T05:12:24;0.93;;;0.70;;
43919;SDS011;29578;51.946;5.874;2022-07-05T05:14:50;1.40;;;1.00;;
43919;SDS011;29578;51.946;5.874;2022-07-05T05:17:16;0.70;;;0.70;;
43919;SDS011;29578;51.946;5.874;2022-07-05T05:19:42;0.90;;;0.80;;
43919;SDS011;29578;51.946;5.874;2022-07-05T05:22:09;1.33;;;0.85;;
43919;SDS011;29578;51.946;5.874;2022-07-05T05:24:35;1.00;;;0.90;;
43919;SDS011;29578;51.946;5.874;2022-07-05T05:27:01;1.63;;;1.15;;
43919;SDS011;29578;51.946;5.874;2022-07-05T05:29:27;1.10;;;0.90;;
43919;SDS011;29578;51.946;5.874;2022-07-05T05:31:53;1.55;;;0.80;;
43919;SDS011;29578;51.946;5.874;2022-07-05T05:34:19;2.63;;;1.25;;
43919;SDS011;29578;51.946;5.874;2022-07-05T05:36:44;1.55;;;1.10;;
43919;SDS011;29578;51.946;5.874;2022-07-05T05:39:10;1.27;;;0.90;;
43919;SDS011;29578;51.946;5.874;2022-07-05T05:41:36;0.85;;;0.75;;
43919;SDS011;29578;51.946;5.874;2022-07-05T05:44:02;1.10;;;0.90;;
43919;SDS011;29578;51.946;5.874;2022-07-05T05:46:28;0.82;;;0.82;;
43919;SDS011;29578;51.946;5.874;2022-07-05T05:48:54;1.58;;;1.15;;
43919;SDS011;29578;51.946;5.874;2022-07-05T05:51:20;0.75;;;0.73;;
43919;SDS011;29578;51.946;5.874;2022-07-05T05:53:45;1.00;;;0.90;;
43919;SDS011;29578;51.946;5.874;2022-07-05T05:56:12;0.98;;;0.88;;
43919;SDS011;29578;51.946;5.874;2022-07-05T05:58:38;1.02;;;0.90;;
43919;SDS011;29578;51.946;5.874;2022-07-05T06:01:03;0.77;;;0.73;;
43919;SDS011;29578;51.946;5.874;2022-07-05T06:03:29;1.50;;;1.10;;
43919;SDS011;29578;51.946;5.874;2022-07-05T06:05:55;1.15;;;0.88;;
43919;SDS011;29578;51.946;5.874;2022-07-05T06:08:21;1.70;;;1.10;;
43919;SDS011;29578;51.946;5.874;2022-07-05T06:10:48;1.45;;;1.00;;
43919;SDS011;29578;51.946;5.874;2022-07-05T06:13:14;1.10;;;0.93;;
43919;SDS011;29578;51.946;5.874;2022-07-05T06:15:41;1.33;;;0.90;;
43919;SDS011;29578;51.946;5.874;2022-07-05T06:18:07;1.00;;;0.90;;
43919;SDS011;29578;51.946;5.874;2022-07-05T06:20:35;1.23;;;1.00;;
43919;SDS011;29578;51.946;5.874;2022-07-05T06:23:02;0.80;;;0.80;;
43919;SDS011;29578;51.946;5.874;2022-07-05T06:25:30;1.20;;;0.85;;
43919;SDS011;29578;51.946;5.874;2022-07-05T06:27:57;0.98;;;0.73;;
43919;SDS011;29578;51.946;5.874;2022-07-05T06:30:25;0.73;;;0.70;;
43919;SDS011;29578;51.946;5.874;2022-07-05T06:32:55;1.42;;;1.05;;
43919;SDS011;29578;51.946;5.874;2022-07-05T06:35:21;1.13;;;1.02;;
43919;SDS011;29578;51.946;5.874;2022-07-05T06:37:48;1.92;;;1.15;;
43919;SDS011;29578;51.946;5.874;2022-07-05T06:40:20;1.40;;;1.00;;
43919;SDS011;29578;51.946;5.874;2022-07-05T06:42:48;0.85;;;0.82;;
43919;SDS011;29578;51.946;5.874;2022-07-05T06:45:14;1.27;;;1.00;;
43919;SDS011;29578;51.946;5.874;2022-07-05T06:47:41;1.00;;;0.88;;
43919;SDS011;29578;51.946;5.874;2022-07-05T06:50:08;1.20;;;1.00;;
43919;SDS011;29578;51.946;5.874;2022-07-05T06:52:40;0.93;;;0.80;;
43919;SDS011;29578;51.946;5.874;2022-07-05T06:55:05;0.75;;;0.70;;
43919;SDS011;29578;51.946;5.874;2022-07-05T06:57:32;1.65;;;0.75;;
43919;SDS011;29578;51.946;5.874;2022-07-05T06:59:58;0.75;;;0.68;;
43919;SDS011;29578;51.946;5.874;2022-07-05T07:02:24;1.42;;;1.10;;
43919;SDS011;29578;51.946;5.874;2022-07-05T07:04:50;1.42;;;0.73;;
43919;SDS011;29578;51.946;5.874;2022-07-05T07:07:16;1.13;;;0.65;;
43919;SDS011;29578;51.946;5.874;2022-07-05T07:09:55;1.98;;;1.10;;
43919;SDS011;29578;51.946;5.874;2022-07-05T07:12:24;1.10;;;1.00;;
43919;SDS011;29578;51.946;5.874;2022-07-05T07:14:53;0.80;;;0.80;;
43919;SDS011;29578;51.946;5.874;2022-07-05T07:17:30;0.85;;;0.77;;
43919;SDS011;29578;51.946;5.874;2022-07-05T07:20:22;0.50;;;0.50;;
43919;SDS011;29578;51.946;5.874;2022-07-05T07:22:48;0.85;;;0.60;;
43919;SDS011;29578;51.946;5.874;2022-07-05T07:25:23;1.63;;;0.82;;
43919;SDS011;29578;51.946;5.874;2022-07-05T07:27:50;0.85;;;0.80;;
43919;SDS011;29578;51.946;5.874;2022-07-05T07:30:19;0.80;;;0.70;;
43919;SDS011;29578;51.946;5.874;2022-07-05T07:32:47;0.80;;;0.75;;
43919;SDS011;29578;51.946;5.874;2022-07-05T07:35:13;0.98;;;0.88;;
43919;SDS011;29578;51.946;5.874;2022-07-05T07:37:38;0.60;;;0.57;;
43919;SDS011;29578;51.946;5.874;2022-07-05T07:40:05;1.23;;;0.90;;
43919;SDS011;29578;51.946;5.874;2022-07-05T07:42:32;1.15;;;1.05;;
43919;SDS011;29578;51.946;5.874;2022-07-05T07:44:58;0.90;;;0.90;;
43919;SDS011;29578;51.946;5.874;2022-07-05T07:47:23;1.13;;;0.85;;
43919;SDS011;29578;51.946;5.874;2022-07-05T07:49:49;1.10;;;0.98;;
43919;SDS011;29578;51.946;5.874;2022-07-05T07:52:15;1.10;;;1.00;;
43919;SDS011;29578;51.946;5.874;2022-07-05T07:54:41;1.15;;;0.80;;
43919;SDS011;29578;51.946;5.874;2022-07-05T07:57:07;0.85;;;0.60;;
43919;SDS011;29578;51.946;5.874;2022-07-05T07:59:33;0.82;;;0.82;;
43919;SDS011;29578;51.946;5.874;2022-07-05T08:01:59;0.70;;;0.70;;
43919;SDS011;29578;51.946;5.874;2022-07-05T08:04:25;1.15;;;1.00;;
43919;SDS011;29578;51.946;5.874;2022-07-05T08:06:51;0.85;;;0.50;;
43919;SDS011;29578;51.946;5.874;2022-07-05T08:09:17;1.35;;;1.20;;
43919;SDS011;29578;51.946;5.874;2022-07-05T08:11:45;0.60;;;0.60;;
43919;SDS011;29578;51.946;5.874;2022-07-05T08:14:12;1.08;;;0.98;;
43919;SDS011;29578;51.946;5.874;2022-07-05T08:16:38;1.00;;;0.60;;
43919;SDS011;29578;51.946;5.874;2022-07-05T08:19:04;1.77;;;0.73;;
43919;SDS011;29578;51.946;5.874;2022-07-05T08:21:47;1.00;;;0.90;;
43919;SDS011;29578;51.946;5.874;2022-07-05T08:24:13;0.93;;;0.80;;
43919;SDS011;29578;51.946;5.874;2022-07-05T08:26:39;0.77;;;0.77;;
43919;SDS011;29578;51.946;5.874;2022-07-05T08:29:08;0.50;;;0.50;;
43919;SDS011;29578;51.946;5.874;2022-07-05T08:31:36;0.52;;;0.47;;
43919;SDS011;29578;51.946;5.874;2022-07-05T08:34:06;1.02;;;0.65;;
43919;SDS011;29578;51.946;5.874;2022-07-05T08:36:33;0.70;;;0.70;;
43919;SDS011;29578;51.946;5.874;2022-07-05T08:38:59;0.65;;;0.65;;
43919;SDS011;29578;51.946;5.874;2022-07-05T08:41:25;1.02;;;0.57;;
43919;SDS011;29578;51.946;5.874;2022-07-05T08:43:51;0.57;;;0.57;;
43919;SDS011;29578;51.946;5.874;2022-07-05T08:46:18;0.40;;;0.40;;
43919;SDS011;29578;51.946;5.874;2022-07-05T08:48:47;0.65;;;0.63;;
43919;SDS011;29578;51.946;5.874;2022-07-05T08:51:14;0.55;;;0.50;;
43919;SDS011;29578;51.946;5.874;2022-07-05T08:53:43;0.70;;;0.70;;
43919;SDS011;29578;51.946;5.874;2022-07-05T08:56:11;0.70;;;0.70;;
43919;SDS011;29578;51.946;5.874;2022-07-05T08:58:37;2.63;;;1.00;;
43919;SDS011;29578;51.946;5.874;2022-07-05T09:01:04;0.82;;;0.55;;
43919;SDS011;29578;51.946;5.874;2022-07-05T09:03:32;0.60;;;0.60;;
43919;SDS011;29578;51.946;5.874;2022-07-05T09:06:01;0.70;;;0.65;;
43919;SDS011;29578;51.946;5.874;2022-07-05T09:08:29;0.47;;;0.47;;
43919;SDS011;29578;51.946;5.874;2022-07-05T09:11:00;0.50;;;0.50;;
43919;SDS011;29578;51.946;5.874;2022-07-05T09:13:28;0.90;;;0.57;;
43919;SDS011;29578;51.946;5.874;2022-07-05T09:15:58;0.75;;;0.60;;
43919;SDS011;29578;51.946;5.874;2022-07-05T09:18:48;2.08;;;0.70;;
43919;SDS011;29578;51.946;5.874;2022-07-05T09:21:16;0.82;;;0.70;;
43919;SDS011;29578;51.946;5.874;2022-07-05T09:23:54;1.05;;;0.95;;
43919;SDS011;29578;51.946;5.874;2022-07-05T09:27:01;0.75;;;0.75;;
43919;SDS011;29578;51.946;5.874;2022-07-05T09:29:28;0.60;;;0.57;;
43919;SDS011;29578;51.946;5.874;2022-07-05T09:31:57;0.65;;;0.65;;
43919;SDS011;29578;51.946;5.874;2022-07-05T09:34:33;1.10;;;0.80;;
43919;SDS011;29578;51.946;5.874;2022-07-05T09:37:00;0.70;;;0.70;;
43919;SDS011;29578;51.946;5.874;2022-07-05T09:39:37;0.40;;;0.40;;
43919;SDS011;29578;51.946;5.874;2022-07-05T09:42:19;0.98;;;0.60;;
43919;SDS011;29578;51.946;5.874;2022-07-05T09:44:50;0.75;;;0.70;;
43919;SDS011;29578;51.946;5.874;2022-07-05T09:47:18;0.57;;;0.40;;
43919;SDS011;29578;51.946;5.874;2022-07-05T09:49:49;0.68;;;0.60;;
43919;SDS011;29578;51.946;5.874;2022-07-05T09:57:40;0.63;;;0.63;;
43919;SDS011;29578;51.946;5.874;2022-07-05T10:00:07;1.38;;;0.73;;
43919;SDS011;29578;51.946;5.874;2022-07-05T10:02:36;1.05;;;0.88;;
43919;SDS011;29578;51.946;5.874;2022-07-05T10:05:07;2.10;;;0.80;;
43919;SDS011;29578;51.946;5.874;2022-07-05T10:07:34;0.75;;;0.70;;
43919;SDS011;29578;51.946;5.874;2022-07-05T10:10:01;1.10;;;0.80;;
43919;SDS011;29578;51.946;5.874;2022-07-05T10:12:30;1.13;;;0.95;;
43919;SDS011;29578;51.946;5.874;2022-07-05T10:14:58;1.48;;;0.88;;
43919;SDS011;29578;51.946;5.874;2022-07-05T10:17:25;0.60;;;0.60;;
43919;SDS011;29578;51.946;5.874;2022-07-05T10:19:53;0.55;;;0.55;;
43919;SDS011;29578;51.946;5.874;2022-07-05T10:22:20;0.95;;;0.88;;
43919;SDS011;29578;51.946;5.874;2022-07-05T10:24:48;0.75;;;0.75;;
43919;SDS011;29578;51.946;5.874;2022-07-05T10:27:14;1.20;;;0.73;;
43919;SDS011;29578;51.946;5.874;2022-07-05T10:29:40;1.02;;;0.70;;
43919;SDS011;29578;51.946;5.874;2022-07-05T10:32:07;0.85;;;0.80;;
43919;SDS011;29578;51.946;5.874;2022-07-05T10:34:35;0.60;;;0.60;;
43919;SDS011;29578;51.946;5.874;2022-07-05T10:37:02;0.50;;;0.50;;
43919;SDS011;29578;51.946;5.874;2022-07-05T10:39:30;0.95;;;0.50;;
43919;SDS011;29578;51.946;5.874;2022-07-05T10:41:56;0.82;;;0.57;;
43919;SDS011;29578;51.946;5.874;2022-07-05T10:44:29;0.98;;;0.77;;
43919;SDS011;29578;51.946;5.874;2022-07-05T10:47:13;0.85;;;0.70;;
43919;SDS011;29578;51.946;5.874;2022-07-05T10:52:23;0.40;;;0.40;;
43919;SDS011;29578;51.946;5.874;2022-07-05T11:03:55;1.25;;;0.60;;
43919;SDS011;29578;51.946;5.874;2022-07-05T11:06:41;0.68;;;0.60;;
43919;SDS011;29578;51.946;5.874;2022-07-05T11:09:13;0.65;;;0.65;;
43919;SDS011;29578;51.946;5.874;2022-07-05T11:11:42;0.40;;;0.40;;
43919;SDS011;29578;51.946;5.874;2022-07-05T11:22:33;0.63;;;0.63;;
43919;SDS011;29578;51.946;5.874;2022-07-05T11:24:59;1.25;;;0.68;;
43919;SDS011;29578;51.946;5.874;2022-07-05T11:27:27;0.63;;;0.50;;
43919;SDS011;29578;51.946;5.874;2022-07-05T11:29:54;0.80;;;0.80;;
43919;SDS011;29578;51.946;5.874;2022-07-05T11:32:22;0.75;;;0.73;;
43919;SDS011;29578;51.946;5.874;2022-07-05T11:35:17;0.50;;;0.50;;
43919;SDS011;29578;51.946;5.874;2022-07-05T11:38:02;0.57;;;0.57;;
43919;SDS011;29578;51.946;5.874;2022-07-05T11:40:31;0.60;;;0.60;;
43919;SDS011;29578;51.946;5.874;2022-07-05T11:43:00;0.40;;;0.40;;
43919;SDS011;29578;51.946;5.874;2022-07-05T11:45:27;0.60;;;0.60;;
43919;SDS011;29578;51.946;5.874;2022-07-05T11:47:56;0.90;;;0.50;;
43919;SDS011;29578;51.946;5.874;2022-07-05T11:50:30;0.40;;;0.40;;
43919;SDS011;29578;51.946;5.874;2022-07-05T11:52:58;0.75;;;0.40;;
43919;SDS011;29578;51.946;5.874;2022-07-05T11:55:26;0.65;;;0.47;;
43919;SDS011;29578;51.946;5.874;2022-07-05T11:57:54;0.32;;;0.32;;
43919;SDS011;29578;51.946;5.874;2022-07-05T12:00:30;0.40;;;0.40;;
43919;SDS011;29578;51.946;5.874;2022-07-05T12:02:58;1.10;;;0.65;;
43919;SDS011;29578;51.946;5.874;2022-07-05T12:05:29;0.32;;;0.30;;
43919;SDS011;29578;51.946;5.874;2022-07-05T12:07:56;0.43;;;0.43;;
43919;SDS011;29578;51.946;5.874;2022-07-05T12:10:22;0.40;;;0.40;;
43919;SDS011;29578;51.946;5.874;2022-07-05T12:13:13;0.75;;;0.50;;
43919;SDS011;29578;51.946;5.874;2022-07-05T12:18:05;0.40;;;0.40;;
43919;SDS011;29578;51.946;5.874;2022-07-05T12:20:34;0.40;;;0.40;;
43919;SDS011;29578;51.946;5.874;2022-07-05T12:23:01;0.60;;;0.40;;
43919;SDS011;29578;51.946;5.874;2022-07-05T12:25:28;0.85;;;0.50;;
43919;SDS011;29578;51.946;5.874;2022-07-05T12:27:56;0.80;;;0.40;;
43919;SDS011;29578;51.946;5.874;2022-07-05T12:30:23;0.40;;;0.40;;
43919;SDS011;29578;51.946;5.874;2022-07-05T12:32:57;0.50;;;0.50;;
43919;SDS011;29578;51.946;5.874;2022-07-05T12:35:36;0.32;;;0.22;;
43919;SDS011;29578;51.946;5.874;2022-07-05T12:38:05;0.40;;;0.40;;
43919;SDS011;29578;51.946;5.874;2022-07-05T12:40:32;0.65;;;0.40;;
43919;SDS011;29578;51.946;5.874;2022-07-05T12:43:00;0.38;;;0.38;;
43919;SDS011;29578;51.946;5.874;2022-07-05T12:45:27;0.70;;;0.60;;
43919;SDS011;29578;51.946;5.874;2022-07-05T12:47:53;0.40;;;0.40;;
43919;SDS011;29578;51.946;5.874;2022-07-05T12:50:23;0.50;;;0.50;;
43919;SDS011;29578;51.946;5.874;2022-07-05T12:52:58;0.40;;;0.40;;
43919;SDS011;29578;51.946;5.874;2022-07-05T12:55:42;0.68;;;0.50;;
43919;SDS011;29578;51.946;5.874;2022-07-05T12:58:22;0.40;;;0.40;;
43919;SDS011;29578;51.946;5.874;2022-07-05T13:00:48;0.82;;;0.60;;
43919;SDS011;29578;51.946;5.874;2022-07-05T13:03:14;0.55;;;0.45;;
43919;SDS011;29578;51.946;5.874;2022-07-05T13:05:40;0.50;;;0.50;;
43919;SDS011;29578;51.946;5.874;2022-07-05T13:08:06;0.40;;;0.40;;
43919;SDS011;29578;51.946;5.874;2022-07-05T13:10:33;0.52;;;0.50;;
43919;SDS011;29578;51.946;5.874;2022-07-05T13:12:58;0.45;;;0.45;;
43919;SDS011;29578;51.946;5.874;2022-07-05T13:15:24;1.35;;;0.35;;
43919;SDS011;29578;51.946;5.874;2022-07-05T13:17:50;0.52;;;0.52;;
43919;SDS011;29578;51.946;5.874;2022-07-05T13:20:16;1.48;;;0.60;;
43919;SDS011;29578;51.946;5.874;2022-07-05T13:22:45;0.50;;;0.50;;
43919;SDS011;29578;51.946;5.874;2022-07-05T13:25:12;0.55;;;0.50;;
43919;SDS011;29578;51.946;5.874;2022-07-05T13:27:38;0.75;;;0.47;;
43919;SDS011;29578;51.946;5.874;2022-07-05T13:30:05;0.32;;;0.32;;
43919;SDS011;29578;51.946;5.874;2022-07-05T13:32:31;0.30;;;0.30;;
43919;SDS011;29578;51.946;5.874;2022-07-05T13:34:57;0.32;;;0.30;;
43919;SDS011;29578;51.946;5.874;2022-07-05T13:37:23;0.32;;;0.32;;
43919;SDS011;29578;51.946;5.874;2022-07-05T13:39:49;0.63;;;0.43;;
43919;SDS011;29578;51.946;5.874;2022-07-05T13:42:22;0.50;;;0.50;;
43919;SDS011;29578;51.946;5.874;2022-07-05T13:44:50;0.30;;;0.30;;
43919;SDS011;29578;51.946;5.874;2022-07-05T13:47:17;0.32;;;0.32;;
43919;SDS011;29578;51.946;5.874;2022-07-05T13:49:42;0.43;;;0.43;;
43919;SDS011;29578;51.946;5.874;2022-07-05T13:52:08;0.77;;;0.50;;
43919;SDS011;29578;51.946;5.874;2022-07-05T13:54:35;0.40;;;0.40;;
43919;SDS011;29578;51.946;5.874;2022-07-05T13:57:00;0.30;;;0.30;;
43919;SDS011;29578;51.946;5.874;2022-07-05T13:59:26;0.65;;;0.57;;
43919;SDS011;29578;51.946;5.874;2022-07-05T14:01:52;0.77;;;0.50;;
43919;SDS011;29578;51.946;5.874;2022-07-05T14:04:18;0.45;;;0.40;;
43919;SDS011;29578;51.946;5.874;2022-07-05T14:06:43;0.40;;;0.40;;
43919;SDS011;29578;51.946;5.874;2022-07-05T14:09:11;1.98;;;0.60;;
43919;SDS011;29578;51.946;5.874;2022-07-05T14:11:36;1.10;;;0.50;;
43919;SDS011;29578;51.946;5.874;2022-07-05T14:14:02;0.77;;;0.40;;
43919;SDS011;29578;51.946;5.874;2022-07-05T14:16:28;0.35;;;0.35;;
43919;SDS011;29578;51.946;5.874;2022-07-05T14:18:53;0.85;;;0.60;;
43919;SDS011;29578;51.946;5.874;2022-07-05T14:21:21;0.40;;;0.40;;
43919;SDS011;29578;51.946;5.874;2022-07-05T14:23:48;0.90;;;0.32;;
43919;SDS011;29578;51.946;5.874;2022-07-05T14:26:14;0.28;;;0.28;;
43919;SDS011;29578;51.946;5.874;2022-07-05T14:28:40;1.27;;;0.47;;
43919;SDS011;29578;51.946;5.874;2022-07-05T14:31:06;0.30;;;0.30;;
43919;SDS011;29578;51.946;5.874;2022-07-05T14:33:32;1.27;;;0.30;;
43919;SDS011;29578;51.946;5.874;2022-07-05T14:35:57;0.32;;;0.32;;
43919;SDS011;29578;51.946;5.874;2022-07-05T14:38:23;0.38;;;0.38;;
43919;SDS011;29578;51.946;5.874;2022-07-05T14:40:49;0.30;;;0.30;;
43919;SDS011;29578;51.946;5.874;2022-07-05T14:43:14;0.30;;;0.30;;
43919;SDS011;29578;51.946;5.874;2022-07-05T14:45:40;0.63;;;0.63;;
43919;SDS011;29578;51.946;5.874;2022-07-05T14:48:06;0.60;;;0.38;;
43919;SDS011;29578;51.946;5.874;2022-07-05T14:50:31;0.30;;;0.30;;
43919;SDS011;29578;51.946;5.874;2022-07-05T14:52:57;1.05;;;0.50;;
43919;SDS011;29578;51.946;5.874;2022-07-05T14:55:30;0.70;;;0.50;;
43919;SDS011;29578;51.946;5.874;2022-07-05T14:57:56;0.40;;;0.40;;
43919;SDS011;29578;51.946;5.874;2022-07-05T15:00:22;0.63;;;0.30;;
43919;SDS011;29578;51.946;5.874;2022-07-05T15:02:48;0.63;;;0.50;;
43919;SDS011;29578;51.946;5.874;2022-07-05T15:05:14;0.40;;;0.40;;
43919;SDS011;29578;51.946;5.874;2022-07-05T15:07:39;0.28;;;0.28;;
43919;SDS011;29578;51.946;5.874;2022-07-05T15:10:06;0.55;;;0.30;;
43919;SDS011;29578;51.946;5.874;2022-07-05T15:12:32;0.30;;;0.30;;
43919;SDS011;29578;51.946;5.874;2022-07-05T15:14:58;0.32;;;0.30;;
43919;SDS011;29578;51.946;5.874;2022-07-05T15:17:24;0.52;;;0.40;;